Stations météo

Publicité
Chamonix, France (7469): Température de l'air & dewpoint: 20.06.2019 19:00:00 - 26.06.2019 19:00:00 (CEST)Chamonix, France (7469): Vitesse du vent & gusts: 20.06.2019 19:00:00 - 26.06.2019 19:00:00 (CEST)Chamonix, France (7469): Direction du vent: 20.06.2019 19:00:00 - 26.06.2019 19:00:00 (CEST)Chamonix, France (7469): Quantités de précipitations: 20.06.2019 19:00:00 - 26.06.2019 19:00:00 (CEST)
Date & Time tt [°C] td [°C] ff [km/h] ff [knt] fx [km/h] fx [knt] dd rr [mm]
26.06.2019 19:00:00 30,4 13,2 0 0 11 6 N 0,0
26.06.2019 18:00:00 35,2 12,2 5 3 22 12 WSW 0,0
26.06.2019 17:00:00 35,1 10,9 8 4 18 10 SW 0,0
26.06.2019 16:00:00 35,1 10,9 9 5 18 10 WSW 0,0
26.06.2019 15:00:00 34,7 10,5 8 4 18 10 SW 0,0
26.06.2019 14:00:00 34,7 11,2 8 4 16 9 WSW -
26.06.2019 13:00:00 34,3 8,8 5 3 11 6 SW 0,0
26.06.2019 12:00:00 32,1 11,3 0 0 5 3 N 0,0
26.06.2019 11:00:00 28,8 12,2 0 0 4 2 N 0,0
26.06.2019 10:00:00 22,1 14,5 0 0 4 2 N 0,0
26.06.2019 09:00:00 17,2 13,5 0 0 8 4 N 0,0
26.06.2019 08:00:00 12,8 11,7 0 0 5 3 N -
26.06.2019 07:00:00 12,3 11,0 0 0 9 5 N 0,0
26.06.2019 06:00:00 12,1 10,8 0 0 4 2 N 0,0
26.06.2019 05:00:00 12,6 11,3 0 0 5 3 N 0,0
26.06.2019 04:00:00 13,2 11,8 0 0 4 2 N 0,0
26.06.2019 03:00:00 13,9 12,3 0 0 4 2 N 0,0
26.06.2019 02:00:00 14,8 12,8 2 1 4 2 NNE -
26.06.2019 01:00:00 15,7 13,2 0 0 8 4 N 0,0
26.06.2019 00:00:00 16,6 13,3 2 1 5 3 NNW 0,0
25.06.2019 23:00:00 17,7 13,6 2 1 5 3 NNW 0,0
25.06.2019 22:00:00 19,1 13,5 0 0 4 2 N 0,0
25.06.2019 21:00:00 21,1 13,5 0 0 4 2 N 0,0
25.06.2019 20:00:00 23,7 14,1 0 0 11 6 N -
25.06.2019 19:00:00 28,9 16,5 4 2 11 6 SW 0,0
25.06.2019 18:00:00 33,9 12,8 8 4 15 8 WSW 0,0
25.06.2019 17:00:00 35,5 7,6 8 4 15 8 SW 0,0
25.06.2019 16:00:00 35,6 7,6 9 5 18 10 WSW 0,0
25.06.2019 15:00:00 35,9 7,0 4 2 15 8 SSW 0,0
25.06.2019 14:00:00 34,1 7,2 8 4 15 8 WSW -
25.06.2019 13:00:00 33,2 7,9 4 2 9 5 W 0,0
25.06.2019 12:00:00 30,8 6,6 2 1 8 4 SE 0,0
25.06.2019 11:00:00 27,3 12,5 2 1 8 4 SSW 0,0
25.06.2019 10:00:00 21,0 12,7 2 1 8 4 E 0,0
25.06.2019 09:00:00 17,1 12,6 0 0 4 2 N 0,0
25.06.2019 08:00:00 12,6 10,8 0 0 5 3 N -
25.06.2019 07:00:00 12,2 10,4 0 0 8 4 N 0,0
25.06.2019 06:00:00 11,7 10,3 2 1 13 7 NE 0,0
25.06.2019 05:00:00 11,6 10,2 2 1 9 5 ENE 0,0
25.06.2019 04:00:00 11,5 10,1 4 2 8 4 NNE 0,0
25.06.2019 03:00:00 11,8 10,4 0 0 8 4 N 0,0
25.06.2019 02:00:00 12,5 10,7 0 0 4 2 N -
25.06.2019 01:00:00 13,4 11,6 2 1 8 4 E 0,0
25.06.2019 00:00:00 14,4 12,3 0 0 5 3 N 0,0
24.06.2019 23:00:00 15,4 12,7 0 0 5 3 N 0,0
24.06.2019 22:00:00 17,2 13,9 4 2 8 4 E 0,0
24.06.2019 21:00:00 19,5 14,9 2 1 5 3 N 0,0
24.06.2019 20:00:00 22,1 15,7 0 0 4 2 N -
24.06.2019 19:00:00 26,0 15,7 4 2 11 6 WNW 0,0
24.06.2019 18:00:00 29,5 13,7 4 2 16 9 SW 0,0
24.06.2019 17:00:00 31,1 9,9 8 4 18 10 SW 0,0
24.06.2019 16:00:00 30,7 12,1 8 4 16 9 WSW 0,0
24.06.2019 15:00:00 28,4 11,0 4 2 28 15 S 0,4
24.06.2019 14:00:00 28,4 9,2 11 6 26 14 WSW -
24.06.2019 13:00:00 29,6 8,1 8 4 13 7 SW 0,0
24.06.2019 12:00:00 28,4 6,5 2 1 9 5 SSW 0,0
24.06.2019 11:00:00 25,3 7,9 2 1 8 4 SSE 0,0
24.06.2019 10:00:00 17,9 9,0 0 0 5 3 N 0,0
24.06.2019 09:00:00 13,1 12,6 0 0 5 3 N 0,0
24.06.2019 08:00:00 9,3 8,8 0 0 5 3 N -
24.06.2019 07:00:00 8,9 8,4 0 0 2 1 N 0,0
24.06.2019 06:00:00 9,1 8,5 0 0 4 2 N 0,0
24.06.2019 05:00:00 9,7 8,9 0 0 5 3 N 0,0
24.06.2019 04:00:00 10,6 9,8 2 1 8 4 WNW 0,0
24.06.2019 03:00:00 11,2 10,4 2 1 5 3 E 0,0
24.06.2019 02:00:00 12,0 11,1 0 0 4 2 N -
24.06.2019 01:00:00 12,9 11,6 0 0 4 2 N 0,0
24.06.2019 00:00:00 14,0 12,2 0 0 4 2 N 0,0
23.06.2019 23:00:00 14,9 12,8 0 0 4 2 N 0,0
23.06.2019 22:00:00 16,2 13,1 0 0 5 3 N 0,0
23.06.2019 21:00:00 18,9 13,5 0 0 16 9 N 0,0
23.06.2019 20:00:00 22,3 12,3 4 2 11 6 W -
23.06.2019 19:00:00 24,9 11,5 8 4 22 12 WSW 0,0
23.06.2019 18:00:00 27,6 12,4 4 2 21 11 S 0,0
23.06.2019 17:00:00 28,3 11,4 5 3 21 11 SSW 0,0
23.06.2019 16:00:00 27,4 9,2 5 3 21 11 SSW 0,0
23.06.2019 15:00:00 26,8 8,3 8 4 22 12 SSW 0,0
23.06.2019 14:00:00 25,8 8,3 8 4 22 12 SW -
23.06.2019 13:00:00 25,1 9,8 5 3 15 8 SSW 0,0
23.06.2019 12:00:00 23,4 9,4 4 2 8 4 SW 0,0
23.06.2019 11:00:00 19,2 11,0 4 2 8 4 E 0,0
23.06.2019 10:00:00 13,5 11,6 0 0 5 3 N 0,0
23.06.2019 09:00:00 11,0 10,7 2 1 5 3 NNE 0,0
23.06.2019 08:00:00 7,4 7,1 2 1 5 3 SSE -
23.06.2019 07:00:00 6,8 6,4 0 0 4 2 N 0,0
23.06.2019 06:00:00 6,8 6,4 0 0 5 3 N 0,0
23.06.2019 05:00:00 7,1 6,7 2 1 8 4 E 0,2
23.06.2019 04:00:00 7,7 7,3 2 1 4 2 NNE 0,0
23.06.2019 03:00:00 8,1 7,5 0 0 4 2 N 0,0
23.06.2019 02:00:00 8,9 8,3 0 0 4 2 N -
23.06.2019 01:00:00 9,5 8,9 0 0 8 4 N 0,0
23.06.2019 00:00:00 10,1 9,3 0 0 2 1 N 0,0
22.06.2019 23:00:00 10,9 10,0 0 0 5 3 N 0,0
22.06.2019 22:00:00 12,2 11,1 0 0 5 3 N 0,0
22.06.2019 21:00:00 14,0 12,9 2 1 5 3 NNE 0,0
22.06.2019 20:00:00 14,4 12,9 2 1 5 3 NNE -
22.06.2019 19:00:00 16,2 13,1 0 0 13 7 N 0,0
22.06.2019 18:00:00 15,9 14,3 4 2 9 5 NNW 0,8
22.06.2019 17:00:00 16,9 12,8 4 2 11 6 NE 0,0
22.06.2019 16:00:00 17,7 10,8 4 2 29 16 SSE 0,0
22.06.2019 15:00:00 22,2 13,3 8 4 29 16 S 0,0
22.06.2019 14:00:00 22,7 12,0 8 4 22 12 SSW -
22.06.2019 13:00:00 22,0 10,5 8 4 16 9 SW 0,0
22.06.2019 12:00:00 19,4 11,2 5 3 13 7 WSW 0,0
22.06.2019 11:00:00 17,5 12,4 4 2 9 5 SE 0,0
22.06.2019 10:00:00 13,6 12,7 0 0 8 4 N 0,0
22.06.2019 09:00:00 12,3 11,8 2 1 5 3 W 0,0
22.06.2019 08:00:00 11,3 10,8 2 1 8 4 NE -
22.06.2019 07:00:00 11,0 10,5 2 1 13 7 WNW 1,0
22.06.2019 06:00:00 11,3 10,8 2 1 15 8 E 5,0
22.06.2019 05:00:00 10,9 10,4 4 2 11 6 SSE 0,0
22.06.2019 04:00:00 10,9 10,4 2 1 11 6 ESE 0,0
22.06.2019 03:00:00 11,3 10,8 4 2 13 7 E 0,2
22.06.2019 02:00:00 11,5 11,0 0 0 8 4 N -
22.06.2019 01:00:00 11,6 11,0 2 1 8 4 SE 0,0
22.06.2019 00:00:00 11,9 11,3 2 1 13 7 NW 0,4
21.06.2019 23:00:00 12,1 11,5 0 0 8 4 N 0,6
21.06.2019 22:00:00 12,5 11,7 0 0 15 8 N 0,2
21.06.2019 21:00:00 13,2 12,4 2 1 11 6 ENE 3,0
21.06.2019 20:00:00 14,0 12,7 4 2 13 7 NNW -
21.06.2019 19:00:00 15,9 14,4 2 1 9 5 SW 0,2
21.06.2019 18:00:00 16,5 14,9 0 0 8 4 N 0,6
21.06.2019 17:00:00 16,4 14,4 0 0 15 8 N 2,0
21.06.2019 16:00:00 17,6 13,3 4 2 16 9 S 1,0
21.06.2019 15:00:00 22,7 9,8 2 1 8 4 WSW 0,2
21.06.2019 14:00:00 20,1 13,5 0 0 8 4 N -
21.06.2019 13:00:00 17,3 14,0 2 1 5 3 S 0,0
21.06.2019 12:00:00 15,7 13,9 2 1 - - WSW 0,0
21.06.2019 11:00:00 13,6 13,3 0 0 5 3 N 0,0
21.06.2019 10:00:00 12,7 12,4 2 1 5 3 SW 0,0
21.06.2019 09:00:00 12,1 11,8 0 0 5 3 N 0,0
21.06.2019 08:00:00 11,2 10,9 0 0 5 3 N -
21.06.2019 07:00:00 11,0 10,7 2 1 8 4 WNW 0,0
21.06.2019 06:00:00 10,1 9,8 0 0 4 2 N 0,0
21.06.2019 05:00:00 9,6 9,1 0 0 4 2 N 0,0
21.06.2019 04:00:00 9,4 8,9 2 1 5 3 E 0,0
21.06.2019 03:00:00 9,2 8,6 0 0 4 2 N 0,0
21.06.2019 02:00:00 9,8 9,2 0 0 4 2 N -
21.06.2019 01:00:00 10,7 10,1 2 1 4 2 NE 0,0
21.06.2019 00:00:00 11,4 10,6 0 0 4 2 N 0,2
20.06.2019 23:00:00 12,2 11,3 0 0 5 3 N 0,0
20.06.2019 22:00:00 13,2 12,1 2 1 8 4 ENE 0,0
20.06.2019 21:00:00 14,4 12,6 2 1 22 12 NE 3,0
20.06.2019 20:00:00 19,0 11,3 5 3 21 11 SW -
20.06.2019 19:00:00 20,7 9,3 4 2 21 11 SW 0,0

tt = Température de l'air
td = dewpoint
ff = Vitesse du vent
fx = gusts
dd = Direction du vent
rr = Quantités de précipitations

stations d'obs. à proximité